sensor_id;sensor_type;location;lat;lon;timestamp;P1;durP1;ratioP1;P2;durP2;ratioP2
29026;SDS011;16120;48.608;9.092;2024-03-23T00:54:37;110.97;;;8.47;;
29026;SDS011;16120;48.608;9.092;2024-03-23T00:58:32;112.57;;;9.03;;
29026;SDS011;16120;48.608;9.092;2024-03-23T01:02:27;112.10;;;9.40;;
29026;SDS011;16120;48.608;9.092;2024-03-23T01:06:22;111.90;;;9.00;;
29026;SDS011;16120;48.608;9.092;2024-03-23T01:10:19;111.97;;;8.57;;
29026;SDS011;16120;48.608;9.092;2024-03-23T01:14:14;112.77;;;8.73;;
29026;SDS011;16120;48.608;9.092;2024-03-23T01:18:09;112.37;;;8.83;;
29026;SDS011;16120;48.608;9.092;2024-03-23T01:22:04;112.80;;;8.50;;
29026;SDS011;16120;48.608;9.092;2024-03-23T01:26:01;112.78;;;9.25;;
29026;SDS011;16120;48.608;9.092;2024-03-23T01:29:56;112.23;;;9.00;;
29026;SDS011;16120;48.608;9.092;2024-03-23T01:33:51;112.87;;;9.07;;
29026;SDS011;16120;48.608;9.092;2024-03-23T01:37:46;111.97;;;8.87;;
29026;SDS011;16120;48.608;9.092;2024-03-23T01:41:43;112.87;;;8.90;;
29026;SDS011;16120;48.608;9.092;2024-03-23T01:45:38;112.90;;;9.60;;
29026;SDS011;16120;48.608;9.092;2024-03-23T01:49:33;112.43;;;8.60;;
29026;SDS011;16120;48.608;9.092;2024-03-23T01:53:29;112.93;;;8.63;;
29026;SDS011;16120;48.608;9.092;2024-03-23T01:57:25;113.13;;;9.37;;
29026;SDS011;16120;48.608;9.092;2024-03-23T02:01:20;113.00;;;9.13;;
29026;SDS011;16120;48.608;9.092;2024-03-23T02:05:15;112.27;;;8.77;;
29026;SDS011;16120;48.608;9.092;2024-03-23T02:09:11;112.60;;;9.27;;
29026;SDS011;16120;48.608;9.092;2024-03-23T02:13:07;112.33;;;9.17;;
29026;SDS011;16120;48.608;9.092;2024-03-23T02:17:03;111.60;;;8.90;;
29026;SDS011;16120;48.608;9.092;2024-03-23T02:20:58;111.43;;;8.67;;
29026;SDS011;16120;48.608;9.092;2024-03-23T02:24:54;110.87;;;9.10;;
29026;SDS011;16120;48.608;9.092;2024-03-23T02:28:50;111.20;;;8.93;;
29026;SDS011;16120;48.608;9.092;2024-03-23T02:32:45;111.97;;;8.80;;
29026;SDS011;16120;48.608;9.092;2024-03-23T02:36:40;111.67;;;9.93;;
29026;SDS011;16120;48.608;9.092;2024-03-23T02:40:36;111.10;;;8.77;;
29026;SDS011;16120;48.608;9.092;2024-03-23T02:44:32;111.20;;;8.83;;
29026;SDS011;16120;48.608;9.092;2024-03-23T02:48:27;111.80;;;8.93;;
29026;SDS011;16120;48.608;9.092;2024-03-23T02:52:22;111.70;;;8.97;;
29026;SDS011;16120;48.608;9.092;2024-03-23T02:56:19;111.30;;;8.50;;
29026;SDS011;16120;48.608;9.092;2024-03-23T03:00:14;111.47;;;9.10;;
29026;SDS011;16120;48.608;9.092;2024-03-23T03:04:09;112.07;;;9.60;;
29026;SDS011;16120;48.608;9.092;2024-03-23T03:08:05;111.17;;;9.03;;
29026;SDS011;16120;48.608;9.092;2024-03-23T03:12:01;111.87;;;9.23;;
29026;SDS011;16120;48.608;9.092;2024-03-23T03:15:56;111.87;;;9.43;;
29026;SDS011;16120;48.608;9.092;2024-03-23T03:19:52;111.80;;;9.47;;
29026;SDS011;16120;48.608;9.092;2024-03-23T03:23:47;110.77;;;8.40;;
29026;SDS011;16120;48.608;9.092;2024-03-23T03:27:43;110.77;;;9.00;;
29026;SDS011;16120;48.608;9.092;2024-03-23T03:31:39;111.10;;;8.80;;
29026;SDS011;16120;48.608;9.092;2024-03-23T03:35:34;111.37;;;9.00;;
29026;SDS011;16120;48.608;9.092;2024-03-23T03:39:30;111.73;;;8.47;;
29026;SDS011;16120;48.608;9.092;2024-03-23T03:43:27;112.40;;;8.50;;
29026;SDS011;16120;48.608;9.092;2024-03-23T03:47:22;111.27;;;8.73;;
29026;SDS011;16120;48.608;9.092;2024-03-23T03:51:17;111.40;;;9.00;;
29026;SDS011;16120;48.608;9.092;2024-03-23T03:55:13;111.47;;;8.80;;
29026;SDS011;16120;48.608;9.092;2024-03-23T03:59:09;111.37;;;8.70;;
29026;SDS011;16120;48.608;9.092;2024-03-23T04:03:05;112.03;;;8.77;;
29026;SDS011;16120;48.608;9.092;2024-03-23T04:07:00;111.40;;;9.00;;
29026;SDS011;16120;48.608;9.092;2024-03-23T04:10:55;111.50;;;8.70;;
29026;SDS011;16120;48.608;9.092;2024-03-23T04:14:52;112.27;;;8.27;;
29026;SDS011;16120;48.608;9.092;2024-03-23T04:18:47;112.07;;;8.30;;
29026;SDS011;16120;48.608;9.092;2024-03-23T04:22:42;112.20;;;9.30;;
29026;SDS011;16120;48.608;9.092;2024-03-23T04:26:40;112.10;;;8.38;;
29026;SDS011;16120;48.608;9.092;2024-03-23T04:30:37;111.80;;;9.90;;
29026;SDS011;16120;48.608;9.092;2024-03-23T04:34:32;112.37;;;8.70;;
29026;SDS011;16120;48.608;9.092;2024-03-23T04:38:27;111.57;;;8.93;;
29026;SDS011;16120;48.608;9.092;2024-03-23T04:42:22;113.43;;;10.17;;
29026;SDS011;16120;48.608;9.092;2024-03-23T04:46:19;113.27;;;8.90;;
29026;SDS011;16120;48.608;9.092;2024-03-23T04:50:14;113.30;;;9.70;;
29026;SDS011;16120;48.608;9.092;2024-03-23T04:54:09;113.13;;;9.30;;
29026;SDS011;16120;48.608;9.092;2024-03-23T04:58:04;111.47;;;8.90;;
29026;SDS011;16120;48.608;9.092;2024-03-23T05:02:01;111.80;;;8.90;;
29026;SDS011;16120;48.608;9.092;2024-03-23T05:05:56;112.77;;;9.20;;
29026;SDS011;16120;48.608;9.092;2024-03-23T05:09:51;112.50;;;8.73;;
29026;SDS011;16120;48.608;9.092;2024-03-23T05:13:47;111.73;;;8.97;;
29026;SDS011;16120;48.608;9.092;2024-03-23T05:17:43;112.47;;;9.40;;
29026;SDS011;16120;48.608;9.092;2024-03-23T05:21:38;112.07;;;8.77;;
29026;SDS011;16120;48.608;9.092;2024-03-23T05:25:33;111.80;;;8.23;;
29026;SDS011;16120;48.608;9.092;2024-03-23T05:29:29;112.27;;;8.90;;
29026;SDS011;16120;48.608;9.092;2024-03-23T05:33:25;111.67;;;9.40;;
29026;SDS011;16120;48.608;9.092;2024-03-23T05:37:20;111.70;;;9.13;;
29026;SDS011;16120;48.608;9.092;2024-03-23T05:41:15;111.57;;;9.07;;
29026;SDS011;16120;48.608;9.092;2024-03-23T05:45:11;111.67;;;9.93;;
29026;SDS011;16120;48.608;9.092;2024-03-23T05:49:07;111.30;;;9.57;;
29026;SDS011;16120;48.608;9.092;2024-03-23T05:53:03;111.57;;;8.90;;
29026;SDS011;16120;48.608;9.092;2024-03-23T05:56:58;111.97;;;9.90;;
29026;SDS011;16120;48.608;9.092;2024-03-23T06:00:56;111.63;;;9.10;;
29026;SDS011;16120;48.608;9.092;2024-03-23T06:04:53;111.57;;;9.20;;
29026;SDS011;16120;48.608;9.092;2024-03-23T06:08:48;111.37;;;9.30;;
29026;SDS011;16120;48.608;9.092;2024-03-23T06:12:43;111.20;;;8.97;;
29026;SDS011;16120;48.608;9.092;2024-03-23T06:16:39;110.90;;;8.90;;
29026;SDS011;16120;48.608;9.092;2024-03-23T06:20:35;111.27;;;9.40;;
29026;SDS011;16120;48.608;9.092;2024-03-23T06:24:30;111.27;;;8.90;;
29026;SDS011;16120;48.608;9.092;2024-03-23T06:28:25;110.47;;;8.47;;
29026;SDS011;16120;48.608;9.092;2024-03-23T06:32:21;110.40;;;8.57;;
29026;SDS011;16120;48.608;9.092;2024-03-23T06:36:18;111.20;;;8.93;;
29026;SDS011;16120;48.608;9.092;2024-03-23T06:40:13;111.27;;;8.77;;
29026;SDS011;16120;48.608;9.092;2024-03-23T06:44:08;111.07;;;8.80;;
29026;SDS011;16120;48.608;9.092;2024-03-23T06:48:04;110.80;;;8.20;;
29026;SDS011;16120;48.608;9.092;2024-03-23T06:52:00;110.17;;;8.93;;
29026;SDS011;16120;48.608;9.092;2024-03-23T06:55:55;110.87;;;8.63;;
29026;SDS011;16120;48.608;9.092;2024-03-23T06:59:51;111.57;;;9.77;;
29026;SDS011;16120;48.608;9.092;2024-03-23T07:03:46;110.80;;;8.50;;
29026;SDS011;16120;48.608;9.092;2024-03-23T07:07:42;111.17;;;8.57;;
29026;SDS011;16120;48.608;9.092;2024-03-23T07:11:37;110.63;;;8.73;;
29026;SDS011;16120;48.608;9.092;2024-03-23T07:15:33;110.00;;;8.57;;
29026;SDS011;16120;48.608;9.092;2024-03-23T07:19:28;110.27;;;8.90;;
29026;SDS011;16120;48.608;9.092;2024-03-23T07:23:24;109.77;;;8.50;;
29026;SDS011;16120;48.608;9.092;2024-03-23T07:27:20;109.60;;;8.43;;
29026;SDS011;16120;48.608;9.092;2024-03-23T07:31:15;108.90;;;8.60;;
29026;SDS011;16120;48.608;9.092;2024-03-23T07:35:10;109.57;;;8.80;;
29026;SDS011;16120;48.608;9.092;2024-03-23T07:39:07;109.47;;;9.03;;
29026;SDS011;16120;48.608;9.092;2024-03-23T07:43:02;108.73;;;8.30;;
29026;SDS011;16120;48.608;9.092;2024-03-23T07:46:58;109.47;;;8.60;;
29026;SDS011;16120;48.608;9.092;2024-03-23T07:50:57;109.17;;;8.13;;
29026;SDS011;16120;48.608;9.092;2024-03-23T07:54:54;109.40;;;8.47;;
29026;SDS011;16120;48.608;9.092;2024-03-23T07:58:49;109.00;;;7.97;;
29026;SDS011;16120;48.608;9.092;2024-03-23T08:02:44;109.37;;;8.17;;
29026;SDS011;16120;48.608;9.092;2024-03-23T08:06:39;110.40;;;10.07;;
29026;SDS011;16120;48.608;9.092;2024-03-23T08:10:36;109.97;;;10.17;;
29026;SDS011;16120;48.608;9.092;2024-03-23T08:14:31;109.87;;;9.07;;
29026;SDS011;16120;48.608;9.092;2024-03-23T08:18:26;109.40;;;8.17;;
29026;SDS011;16120;48.608;9.092;2024-03-23T08:22:22;108.90;;;8.33;;
29026;SDS011;16120;48.608;9.092;2024-03-23T08:26:18;109.90;;;9.10;;
29026;SDS011;16120;48.608;9.092;2024-03-23T08:30:13;109.90;;;8.70;;
29026;SDS011;16120;48.608;9.092;2024-03-23T08:34:08;109.57;;;8.40;;
29026;SDS011;16120;48.608;9.092;2024-03-23T08:38:04;109.73;;;8.80;;
29026;SDS011;16120;48.608;9.092;2024-03-23T08:42:00;110.50;;;9.47;;
29026;SDS011;16120;48.608;9.092;2024-03-23T08:46:02;109.47;;;8.90;;
29026;SDS011;16120;48.608;9.092;2024-03-23T08:49:58;110.47;;;8.27;;
29026;SDS011;16120;48.608;9.092;2024-03-23T08:53:53;109.10;;;8.83;;
29026;SDS011;16120;48.608;9.092;2024-03-23T08:57:49;109.60;;;8.67;;
29026;SDS011;16120;48.608;9.092;2024-03-23T09:01:44;109.47;;;8.73;;
29026;SDS011;16120;48.608;9.092;2024-03-23T09:05:40;110.43;;;9.00;;
29026;SDS011;16120;48.608;9.092;2024-03-23T09:09:37;109.47;;;8.20;;
29026;SDS011;16120;48.608;9.092;2024-03-23T09:13:34;109.90;;;9.20;;
29026;SDS011;16120;48.608;9.092;2024-03-23T09:17:29;109.67;;;8.30;;
29026;SDS011;16120;48.608;9.092;2024-03-23T09:21:24;109.77;;;8.10;;
29026;SDS011;16120;48.608;9.092;2024-03-23T09:25:19;111.00;;;8.40;;
29026;SDS011;16120;48.608;9.092;2024-03-23T09:29:16;109.87;;;8.60;;
29026;SDS011;16120;48.608;9.092;2024-03-23T09:33:11;111.63;;;16.37;;
29026;SDS011;16120;48.608;9.092;2024-03-23T09:37:07;108.80;;;8.73;;
29026;SDS011;16120;48.608;9.092;2024-03-23T09:41:06;108.90;;;9.43;;
29026;SDS011;16120;48.608;9.092;2024-03-23T09:45:03;109.17;;;8.17;;
29026;SDS011;16120;48.608;9.092;2024-03-23T09:48:59;108.97;;;8.40;;
29026;SDS011;16120;48.608;9.092;2024-03-23T09:52:55;109.47;;;8.37;;
29026;SDS011;16120;48.608;9.092;2024-03-23T09:56:50;108.77;;;8.03;;
29026;SDS011;16120;48.608;9.092;2024-03-23T10:00:47;108.67;;;8.07;;
29026;SDS011;16120;48.608;9.092;2024-03-23T10:04:42;109.27;;;8.27;;
29026;SDS011;16120;48.608;9.092;2024-03-23T10:08:37;109.23;;;8.30;;
29026;SDS011;16120;48.608;9.092;2024-03-23T10:12:32;108.70;;;9.13;;
29026;SDS011;16120;48.608;9.092;2024-03-23T10:16:29;108.20;;;8.30;;
29026;SDS011;16120;48.608;9.092;2024-03-23T10:20:24;107.70;;;8.47;;
29026;SDS011;16120;48.608;9.092;2024-03-23T10:24:19;107.70;;;8.43;;
29026;SDS011;16120;48.608;9.092;2024-03-23T10:28:14;107.00;;;8.63;;
29026;SDS011;16120;48.608;9.092;2024-03-23T10:32:11;106.30;;;8.13;;
29026;SDS011;16120;48.608;9.092;2024-03-23T10:36:07;105.97;;;7.87;;
29026;SDS011;16120;48.608;9.092;2024-03-23T10:40:02;125.40;;;33.70;;
29026;SDS011;16120;48.608;9.092;2024-03-23T10:43:58;106.60;;;8.17;;
29026;SDS011;16120;48.608;9.092;2024-03-23T10:47:55;107.07;;;7.80;;
29026;SDS011;16120;48.608;9.092;2024-03-23T10:51:50;109.03;;;12.10;;
29026;SDS011;16120;48.608;9.092;2024-03-23T10:55:46;108.53;;;8.10;;
29026;SDS011;16120;48.608;9.092;2024-03-23T10:59:41;108.57;;;8.17;;
29026;SDS011;16120;48.608;9.092;2024-03-23T11:03:38;108.40;;;8.60;;
29026;SDS011;16120;48.608;9.092;2024-03-23T11:07:33;108.57;;;9.53;;
29026;SDS011;16120;48.608;9.092;2024-03-23T11:11:29;120.17;;;16.93;;
29026;SDS011;16120;48.608;9.092;2024-03-23T11:15:24;108.13;;;8.53;;
29026;SDS011;16120;48.608;9.092;2024-03-23T11:19:36;110.20;;;8.57;;
29026;SDS011;16120;48.608;9.092;2024-03-23T11:23:31;109.77;;;9.00;;
29026;SDS011;16120;48.608;9.092;2024-03-23T11:27:26;109.30;;;8.83;;
29026;SDS011;16120;48.608;9.092;2024-03-23T11:31:21;108.70;;;8.90;;
29026;SDS011;16120;48.608;9.092;2024-03-23T11:35:28;109.37;;;9.23;;
29026;SDS011;16120;48.608;9.092;2024-03-23T11:39:23;113.80;;;9.67;;
29026;SDS011;16120;48.608;9.092;2024-03-23T11:43:19;110.00;;;8.40;;
29026;SDS011;16120;48.608;9.092;2024-03-23T11:47:14;109.47;;;8.67;;
29026;SDS011;16120;48.608;9.092;2024-03-23T11:51:11;109.37;;;8.23;;
29026;SDS011;16120;48.608;9.092;2024-03-23T11:55:06;109.37;;;8.57;;
29026;SDS011;16120;48.608;9.092;2024-03-23T11:59:01;109.10;;;8.30;;
29026;SDS011;16120;48.608;9.092;2024-03-23T12:02:59;109.07;;;9.33;;
29026;SDS011;16120;48.608;9.092;2024-03-23T12:07:11;108.53;;;8.70;;
29026;SDS011;16120;48.608;9.092;2024-03-23T12:11:07;108.57;;;7.87;;
29026;SDS011;16120;48.608;9.092;2024-03-23T12:15:03;109.37;;;8.73;;
29026;SDS011;16120;48.608;9.092;2024-03-23T12:19:04;109.07;;;8.00;;
29026;SDS011;16120;48.608;9.092;2024-03-23T12:23:10;109.37;;;8.27;;
29026;SDS011;16120;48.608;9.092;2024-03-23T12:27:05;109.60;;;8.13;;
29026;SDS011;16120;48.608;9.092;2024-03-23T12:31:01;109.47;;;8.23;;
29026;SDS011;16120;48.608;9.092;2024-03-23T12:34:56;110.40;;;8.57;;
29026;SDS011;16120;48.608;9.092;2024-03-23T12:38:53;108.43;;;9.03;;
29026;SDS011;16120;48.608;9.092;2024-03-23T12:42:48;109.10;;;9.00;;
29026;SDS011;16120;48.608;9.092;2024-03-23T12:46:43;109.77;;;8.33;;
29026;SDS011;16120;48.608;9.092;2024-03-23T12:50:39;109.37;;;7.73;;
29026;SDS011;16120;48.608;9.092;2024-03-23T12:54:35;109.70;;;8.63;;
29026;SDS011;16120;48.608;9.092;2024-03-23T12:58:30;109.10;;;8.47;;
29026;SDS011;16120;48.608;9.092;2024-03-23T13:02:26;109.50;;;8.23;;
29026;SDS011;16120;48.608;9.092;2024-03-23T13:06:21;109.70;;;8.60;;
29026;SDS011;16120;48.608;9.092;2024-03-23T13:10:17;109.50;;;8.32;;
29026;SDS011;16120;48.608;9.092;2024-03-23T13:14:13;111.00;;;8.23;;
29026;SDS011;16120;48.608;9.092;2024-03-23T13:18:08;110.10;;;8.57;;
29026;SDS011;16120;48.608;9.092;2024-03-23T13:22:03;110.47;;;8.57;;
29026;SDS011;16120;48.608;9.092;2024-03-23T13:26:00;109.00;;;9.63;;
29026;SDS011;16120;48.608;9.092;2024-03-23T13:29:55;108.37;;;8.57;;
29026;SDS011;16120;48.608;9.092;2024-03-23T13:33:50;109.03;;;8.47;;
29026;SDS011;16120;48.608;9.092;2024-03-23T13:37:45;109.50;;;9.03;;
29026;SDS011;16120;48.608;9.092;2024-03-23T13:41:42;111.00;;;9.00;;
29026;SDS011;16120;48.608;9.092;2024-03-23T13:45:37;110.47;;;8.73;;
29026;SDS011;16120;48.608;9.092;2024-03-23T13:49:32;109.20;;;8.43;;
29026;SDS011;16120;48.608;9.092;2024-03-23T13:53:28;109.97;;;9.10;;
29026;SDS011;16120;48.608;9.092;2024-03-23T13:57:24;109.77;;;8.07;;
29026;SDS011;16120;48.608;9.092;2024-03-23T14:01:19;110.67;;;8.83;;
29026;SDS011;16120;48.608;9.092;2024-03-23T14:05:14;110.23;;;8.83;;
29026;SDS011;16120;48.608;9.092;2024-03-23T14:09:10;111.07;;;9.13;;
29026;SDS011;16120;48.608;9.092;2024-03-23T14:13:06;110.17;;;8.80;;
29026;SDS011;16120;48.608;9.092;2024-03-23T14:17:01;110.00;;;9.13;;
29026;SDS011;16120;48.608;9.092;2024-03-23T14:20:57;107.87;;;8.93;;
29026;SDS011;16120;48.608;9.092;2024-03-23T14:24:52;109.00;;;9.07;;
29026;SDS011;16120;48.608;9.092;2024-03-23T14:28:49;108.60;;;9.20;;
29026;SDS011;16120;48.608;9.092;2024-03-23T14:32:44;108.77;;;9.10;;
29026;SDS011;16120;48.608;9.092;2024-03-23T14:36:39;108.17;;;9.13;;
29026;SDS011;16120;48.608;9.092;2024-03-23T14:40:35;109.87;;;8.50;;
29026;SDS011;16120;48.608;9.092;2024-03-23T14:44:31;109.83;;;8.60;;
29026;SDS011;16120;48.608;9.092;2024-03-23T14:48:26;110.87;;;9.30;;
29026;SDS011;16120;48.608;9.092;2024-03-23T14:52:21;109.87;;;8.37;;
29026;SDS011;16120;48.608;9.092;2024-03-23T14:56:17;110.47;;;8.70;;
29026;SDS011;16120;48.608;9.092;2024-03-23T15:00:13;110.47;;;8.17;;
29026;SDS011;16120;48.608;9.092;2024-03-23T15:04:09;110.47;;;9.67;;
29026;SDS011;16120;48.608;9.092;2024-03-23T15:08:04;109.40;;;9.10;;
29026;SDS011;16120;48.608;9.092;2024-03-23T15:11:59;108.67;;;9.70;;
29026;SDS011;16120;48.608;9.092;2024-03-23T15:15:56;108.80;;;9.50;;
29026;SDS011;16120;48.608;9.092;2024-03-23T15:19:51;108.40;;;9.00;;
29026;SDS011;16120;48.608;9.092;2024-03-23T15:23:46;107.87;;;9.20;;
29026;SDS011;16120;48.608;9.092;2024-03-23T15:27:41;108.50;;;9.10;;
29026;SDS011;16120;48.608;9.092;2024-03-23T15:31:38;108.80;;;10.10;;
29026;SDS011;16120;48.608;9.092;2024-03-23T15:35:33;110.37;;;9.53;;
29026;SDS011;16120;48.608;9.092;2024-03-23T15:39:28;109.80;;;7.90;;
29026;SDS011;16120;48.608;9.092;2024-03-23T15:43:24;110.87;;;8.60;;
29026;SDS011;16120;48.608;9.092;2024-03-23T15:47:20;111.17;;;9.50;;
29026;SDS011;16120;48.608;9.092;2024-03-23T15:51:15;110.67;;;9.53;;
29026;SDS011;16120;48.608;9.092;2024-03-23T15:55:10;110.43;;;8.40;;
29026;SDS011;16120;48.608;9.092;2024-03-23T15:59:06;111.50;;;8.43;;
29026;SDS011;16120;48.608;9.092;2024-03-23T16:03:02;111.37;;;9.70;;
29026;SDS011;16120;48.608;9.092;2024-03-23T16:06:58;110.43;;;8.10;;
29026;SDS011;16120;48.608;9.092;2024-03-23T16:10:53;110.30;;;8.43;;
29026;SDS011;16120;48.608;9.092;2024-03-23T16:14:48;111.20;;;9.00;;
29026;SDS011;16120;48.608;9.092;2024-03-23T16:18:45;110.77;;;8.50;;
29026;SDS011;16120;48.608;9.092;2024-03-23T16:22:40;112.27;;;9.30;;
29026;SDS011;16120;48.608;9.092;2024-03-23T16:26:35;109.70;;;9.20;;
29026;SDS011;16120;48.608;9.092;2024-03-23T16:30:30;111.30;;;8.90;;
29026;SDS011;16120;48.608;9.092;2024-03-23T16:34:27;111.87;;;9.83;;
29026;SDS011;16120;48.608;9.092;2024-03-23T16:38:22;110.40;;;9.17;;
29026;SDS011;16120;48.608;9.092;2024-03-23T16:42:17;111.40;;;8.87;;
29026;SDS011;16120;48.608;9.092;2024-03-23T16:46:13;110.90;;;9.00;;
29026;SDS011;16120;48.608;9.092;2024-03-23T16:50:10;110.77;;;8.80;;
29026;SDS011;16120;48.608;9.092;2024-03-23T16:54:05;111.00;;;8.80;;
29026;SDS011;16120;48.608;9.092;2024-03-23T16:58:00;112.37;;;9.07;;
29026;SDS011;16120;48.608;9.092;2024-03-23T17:01:55;111.67;;;8.60;;
29026;SDS011;16120;48.608;9.092;2024-03-23T17:05:52;112.50;;;8.70;;
29026;SDS011;16120;48.608;9.092;2024-03-23T17:09:47;112.10;;;8.73;;
29026;SDS011;16120;48.608;9.092;2024-03-23T17:13:42;112.43;;;8.90;;
29026;SDS011;16120;48.608;9.092;2024-03-23T17:17:37;112.50;;;9.20;;
29026;SDS011;16120;48.608;9.092;2024-03-23T17:21:34;112.33;;;8.50;;
29026;SDS011;16120;48.608;9.092;2024-03-23T17:25:29;112.57;;;8.70;;
29026;SDS011;16120;48.608;9.092;2024-03-23T17:29:24;112.32;;;8.43;;
29026;SDS011;16120;48.608;9.092;2024-03-23T17:33:19;112.80;;;8.73;;
29026;SDS011;16120;48.608;9.092;2024-03-23T17:37:16;112.40;;;8.33;;
29026;SDS011;16120;48.608;9.092;2024-03-23T17:41:11;113.07;;;8.50;;
29026;SDS011;16120;48.608;9.092;2024-03-23T17:45:07;112.90;;;8.77;;
29026;SDS011;16120;48.608;9.092;2024-03-23T17:49:02;112.37;;;8.77;;
29026;SDS011;16120;48.608;9.092;2024-03-23T17:52:59;113.17;;;9.27;;
29026;SDS011;16120;48.608;9.092;2024-03-23T17:56:54;113.87;;;9.47;;
29026;SDS011;16120;48.608;9.092;2024-03-23T18:00:49;113.50;;;8.67;;
29026;SDS011;16120;48.608;9.092;2024-03-23T18:04:44;113.50;;;8.67;;
29026;SDS011;16120;48.608;9.092;2024-03-23T18:08:42;115.00;;;10.17;;
29026;SDS011;16120;48.608;9.092;2024-03-23T18:12:37;114.00;;;8.73;;
29026;SDS011;16120;48.608;9.092;2024-03-23T18:16:32;114.50;;;9.80;;
29026;SDS011;16120;48.608;9.092;2024-03-23T18:20:27;113.63;;;8.80;;
29026;SDS011;16120;48.608;9.092;2024-03-23T18:24:24;113.60;;;8.70;;
29026;SDS011;16120;48.608;9.092;2024-03-23T18:28:19;113.93;;;8.80;;
29026;SDS011;16120;48.608;9.092;2024-03-23T18:32:14;114.00;;;8.77;;
29026;SDS011;16120;48.608;9.092;2024-03-23T18:36:09;113.97;;;8.70;;
29026;SDS011;16120;48.608;9.092;2024-03-23T18:40:07;114.20;;;8.67;;
29026;SDS011;16120;48.608;9.092;2024-03-23T18:44:03;114.53;;;9.00;;
29026;SDS011;16120;48.608;9.092;2024-03-23T18:47:58;113.90;;;8.87;;
29026;SDS011;16120;48.608;9.092;2024-03-23T18:51:53;113.77;;;9.00;;
29026;SDS011;16120;48.608;9.092;2024-03-23T18:55:54;114.00;;;8.70;;
29026;SDS011;16120;48.608;9.092;2024-03-23T18:59:49;114.17;;;8.83;;
29026;SDS011;16120;48.608;9.092;2024-03-23T19:03:45;114.40;;;8.90;;
29026;SDS011;16120;48.608;9.092;2024-03-23T19:07:40;113.87;;;9.20;;
29026;SDS011;16120;48.608;9.092;2024-03-23T19:11:36;115.03;;;9.47;;
29026;SDS011;16120;48.608;9.092;2024-03-23T19:15:32;114.50;;;9.10;;
29026;SDS011;16120;48.608;9.092;2024-03-23T19:19:27;114.37;;;8.90;;
29026;SDS011;16120;48.608;9.092;2024-03-23T19:23:22;114.43;;;8.83;;
29026;SDS011;16120;48.608;9.092;2024-03-23T19:27:19;114.60;;;9.30;;
29026;SDS011;16120;48.608;9.092;2024-03-23T19:31:15;114.43;;;8.67;;
29026;SDS011;16120;48.608;9.092;2024-03-23T19:35:10;114.60;;;8.63;;
29026;SDS011;16120;48.608;9.092;2024-03-23T19:39:05;114.57;;;9.00;;
29026;SDS011;16120;48.608;9.092;2024-03-23T19:43:02;113.97;;;8.77;;
29026;SDS011;16120;48.608;9.092;2024-03-23T19:46:57;114.47;;;8.70;;
29026;SDS011;16120;48.608;9.092;2024-03-23T19:50:55;114.67;;;8.47;;
29026;SDS011;16120;48.608;9.092;2024-03-23T19:54:50;115.33;;;9.10;;
29026;SDS011;16120;48.608;9.092;2024-03-23T19:58:47;115.43;;;9.27;;
29026;SDS011;16120;48.608;9.092;2024-03-23T20:02:43;115.37;;;8.80;;
29026;SDS011;16120;48.608;9.092;2024-03-23T20:06:39;115.90;;;9.20;;
29026;SDS011;16120;48.608;9.092;2024-03-23T20:10:34;115.90;;;9.90;;
29026;SDS011;16120;48.608;9.092;2024-03-23T20:14:30;116.50;;;10.10;;
29026;SDS011;16120;48.608;9.092;2024-03-23T20:18:25;115.37;;;9.60;;
29026;SDS011;16120;48.608;9.092;2024-03-23T20:22:21;116.00;;;9.60;;
29026;SDS011;16120;48.608;9.092;2024-03-23T20:26:16;116.37;;;10.03;;
29026;SDS011;16120;48.608;9.092;2024-03-23T20:30:13;116.40;;;9.73;;
29026;SDS011;16120;48.608;9.092;2024-03-23T20:34:08;115.43;;;9.20;;
29026;SDS011;16120;48.608;9.092;2024-03-23T20:38:03;116.53;;;10.33;;
29026;SDS011;16120;48.608;9.092;2024-03-23T20:41:58;116.50;;;9.60;;
29026;SDS011;16120;48.608;9.092;2024-03-23T20:45:58;115.77;;;9.43;;
29026;SDS011;16120;48.608;9.092;2024-03-23T20:49:53;116.17;;;9.83;;
29026;SDS011;16120;48.608;9.092;2024-03-23T20:53:48;116.90;;;9.60;;
29026;SDS011;16120;48.608;9.092;2024-03-23T20:57:43;116.27;;;9.53;;
29026;SDS011;16120;48.608;9.092;2024-03-23T21:01:40;116.33;;;9.20;;
29026;SDS011;16120;48.608;9.092;2024-03-23T21:05:35;116.07;;;9.10;;
29026;SDS011;16120;48.608;9.092;2024-03-23T21:09:31;116.97;;;9.70;;
29026;SDS011;16120;48.608;9.092;2024-03-23T21:13:26;115.77;;;9.47;;
29026;SDS011;16120;48.608;9.092;2024-03-23T21:17:23;116.20;;;9.47;;
29026;SDS011;16120;48.608;9.092;2024-03-23T21:21:18;117.27;;;10.23;;
29026;SDS011;16120;48.608;9.092;2024-03-23T21:25:13;116.20;;;9.50;;
29026;SDS011;16120;48.608;9.092;2024-03-23T21:29:08;116.20;;;9.13;;
29026;SDS011;16120;48.608;9.092;2024-03-23T21:33:05;115.90;;;9.33;;
29026;SDS011;16120;48.608;9.092;2024-03-23T21:37:00;117.20;;;10.30;;
29026;SDS011;16120;48.608;9.092;2024-03-23T21:40:56;117.60;;;10.00;;
29026;SDS011;16120;48.608;9.092;2024-03-23T21:44:51;117.20;;;10.53;;
29026;SDS011;16120;48.608;9.092;2024-03-23T21:48:48;116.63;;;10.07;;
29026;SDS011;16120;48.608;9.092;2024-03-23T21:52:43;116.17;;;9.63;;
29026;SDS011;16120;48.608;9.092;2024-03-23T21:56:38;116.40;;;9.70;;
29026;SDS011;16120;48.608;9.092;2024-03-23T22:00:33;116.37;;;9.33;;
29026;SDS011;16120;48.608;9.092;2024-03-23T22:04:32;115.40;;;9.23;;
29026;SDS011;16120;48.608;9.092;2024-03-23T22:08:28;116.50;;;9.80;;
29026;SDS011;16120;48.608;9.092;2024-03-23T22:12:23;117.00;;;10.50;;
29026;SDS011;16120;48.608;9.092;2024-03-23T22:16:18;115.37;;;9.13;;
29026;SDS011;16120;48.608;9.092;2024-03-23T22:20:14;116.17;;;9.57;;
29026;SDS011;16120;48.608;9.092;2024-03-23T22:24:10;116.53;;;10.00;;
29026;SDS011;16120;48.608;9.092;2024-03-23T22:28:05;116.60;;;9.77;;
29026;SDS011;16120;48.608;9.092;2024-03-23T22:32:00;116.27;;;9.47;;
29026;SDS011;16120;48.608;9.092;2024-03-23T22:35:57;116.70;;;9.77;;
29026;SDS011;16120;48.608;9.092;2024-03-23T22:39:52;116.30;;;9.60;;
29026;SDS011;16120;48.608;9.092;2024-03-23T22:43:48;116.57;;;9.60;;
29026;SDS011;16120;48.608;9.092;2024-03-23T22:47:43;116.27;;;9.40;;
29026;SDS011;16120;48.608;9.092;2024-03-23T22:51:39;116.27;;;9.20;;
29026;SDS011;16120;48.608;9.092;2024-03-23T22:55:34;116.43;;;9.37;;
29026;SDS011;16120;48.608;9.092;2024-03-23T22:59:30;116.47;;;9.63;;
29026;SDS011;16120;48.608;9.092;2024-03-23T23:03:25;116.50;;;9.30;;
29026;SDS011;16120;48.608;9.092;2024-03-23T23:07:21;116.70;;;9.77;;
29026;SDS011;16120;48.608;9.092;2024-03-23T23:11:16;116.90;;;9.63;;
29026;SDS011;16120;48.608;9.092;2024-03-23T23:15:12;116.70;;;9.63;;
29026;SDS011;16120;48.608;9.092;2024-03-23T23:19:07;117.22;;;10.05;;
29026;SDS011;16120;48.608;9.092;2024-03-23T23:23:03;116.23;;;9.43;;
29026;SDS011;16120;48.608;9.092;2024-03-23T23:26:59;116.40;;;9.50;;
29026;SDS011;16120;48.608;9.092;2024-03-23T23:30:54;116.27;;;9.37;;
29026;SDS011;16120;48.608;9.092;2024-03-23T23:34:49;116.63;;;9.90;;
29026;SDS011;16120;48.608;9.092;2024-03-23T23:38:48;116.50;;;10.00;;
29026;SDS011;16120;48.608;9.092;2024-03-23T23:42:43;116.80;;;9.70;;
29026;SDS011;16120;48.608;9.092;2024-03-23T23:46:38;116.40;;;9.77;;
29026;SDS011;16120;48.608;9.092;2024-03-23T23:50:34;116.67;;;9.60;;